sensor_id;sensor_type;location;lat;lon;timestamp;temperature;humidity
83283;DHT22;73190;50.780;5.658;2024-03-06T00:01:11;9.40;83.80
83283;DHT22;73190;50.780;5.658;2024-03-06T00:03:38;9.40;83.60
83283;DHT22;73190;50.780;5.658;2024-03-06T00:06:06;9.40;83.50
83283;DHT22;73190;50.780;5.658;2024-03-06T00:08:34;9.30;83.50
83283;DHT22;73190;50.780;5.658;2024-03-06T00:11:03;9.30;83.60
83283;DHT22;73190;50.780;5.658;2024-03-06T00:13:31;9.30;83.70
83283;DHT22;73190;50.780;5.658;2024-03-06T00:15:58;9.20;83.30
83283;DHT22;73190;50.780;5.658;2024-03-06T00:18:26;9.20;83.40
83283;DHT22;73190;50.780;5.658;2024-03-06T00:20:53;9.20;83.30
83283;DHT22;73190;50.780;5.658;2024-03-06T00:23:21;9.00;83.50
83283;DHT22;73190;50.780;5.658;2024-03-06T00:25:48;9.00;83.30
83283;DHT22;73190;50.780;5.658;2024-03-06T00:28:16;8.90;83.30
83283;DHT22;73190;50.780;5.658;2024-03-06T00:30:43;8.90;83.40
83283;DHT22;73190;50.780;5.658;2024-03-06T00:33:11;8.60;83.60
83283;DHT22;73190;50.780;5.658;2024-03-06T00:35:38;8.60;84.20
83283;DHT22;73190;50.780;5.658;2024-03-06T00:38:06;8.60;84.20
83283;DHT22;73190;50.780;5.658;2024-03-06T00:40:33;8.50;83.70
83283;DHT22;73190;50.780;5.658;2024-03-06T00:43:01;8.50;83.60
83283;DHT22;73190;50.780;5.658;2024-03-06T00:45:28;8.40;83.40
83283;DHT22;73190;50.780;5.658;2024-03-06T00:47:56;8.40;83.70
83283;DHT22;73190;50.780;5.658;2024-03-06T00:50:24;8.30;83.20
83283;DHT22;73190;50.780;5.658;2024-03-06T00:52:51;8.30;83.40
83283;DHT22;73190;50.780;5.658;2024-03-06T00:55:19;8.30;83.50
83283;DHT22;73190;50.780;5.658;2024-03-06T00:57:46;8.30;83.20
83283;DHT22;73190;50.780;5.658;2024-03-06T01:00:14;8.20;83.30
83283;DHT22;73190;50.780;5.658;2024-03-06T01:02:42;8.20;83.10
83283;DHT22;73190;50.780;5.658;2024-03-06T01:05:10;8.10;83.50
83283;DHT22;73190;50.780;5.658;2024-03-06T01:07:40;8.00;83.50
83283;DHT22;73190;50.780;5.658;2024-03-06T01:10:09;8.00;84.00
83283;DHT22;73190;50.780;5.658;2024-03-06T01:12:37;8.10;83.90
83283;DHT22;73190;50.780;5.658;2024-03-06T01:15:05;8.00;83.70
83283;DHT22;73190;50.780;5.658;2024-03-06T01:17:35;8.00;83.00
83283;DHT22;73190;50.780;5.658;2024-03-06T01:20:02;8.00;82.90
83283;DHT22;73190;50.780;5.658;2024-03-06T01:22:33;8.00;83.00
83283;DHT22;73190;50.780;5.658;2024-03-06T01:25:01;8.00;82.80
83283;DHT22;73190;50.780;5.658;2024-03-06T01:27:28;8.00;82.80
83283;DHT22;73190;50.780;5.658;2024-03-06T01:29:56;7.90;82.90
83283;DHT22;73190;50.780;5.658;2024-03-06T01:32:24;7.80;83.60
83283;DHT22;73190;50.780;5.658;2024-03-06T01:34:51;7.90;83.50
83283;DHT22;73190;50.780;5.658;2024-03-06T01:37:19;7.90;83.50
83283;DHT22;73190;50.780;5.658;2024-03-06T01:39:47;7.80;83.60
83283;DHT22;73190;50.780;5.658;2024-03-06T01:42:16;7.80;83.70
83283;DHT22;73190;50.780;5.658;2024-03-06T01:44:44;7.90;83.90
83283;DHT22;73190;50.780;5.658;2024-03-06T01:47:11;7.90;84.00
83283;DHT22;73190;50.780;5.658;2024-03-06T01:49:39;8.00;82.80
83283;DHT22;73190;50.780;5.658;2024-03-06T01:52:12;8.10;82.10
83283;DHT22;73190;50.780;5.658;2024-03-06T01:54:41;8.00;82.00
83283;DHT22;73190;50.780;5.658;2024-03-06T01:57:10;7.80;83.00
83283;DHT22;73190;50.780;5.658;2024-03-06T01:59:42;8.00;81.10
83283;DHT22;73190;50.780;5.658;2024-03-06T02:02:10;8.00;80.90
83283;DHT22;73190;50.780;5.658;2024-03-06T02:04:40;7.90;82.10
83283;DHT22;73190;50.780;5.658;2024-03-06T02:07:11;7.90;82.10
83283;DHT22;73190;50.780;5.658;2024-03-06T02:09:39;7.90;82.10
83283;DHT22;73190;50.780;5.658;2024-03-06T02:12:07;7.90;81.20
83283;DHT22;73190;50.780;5.658;2024-03-06T02:14:36;7.80;81.60
83283;DHT22;73190;50.780;5.658;2024-03-06T02:17:03;7.90;81.70
83283;DHT22;73190;50.780;5.658;2024-03-06T02:19:42;7.80;81.70
83283;DHT22;73190;50.780;5.658;2024-03-06T02:22:10;7.60;81.50
83283;DHT22;73190;50.780;5.658;2024-03-06T02:24:40;7.60;81.50
83283;DHT22;73190;50.780;5.658;2024-03-06T02:27:08;7.50;82.10
83283;DHT22;73190;50.780;5.658;2024-03-06T02:29:35;7.60;81.70
83283;DHT22;73190;50.780;5.658;2024-03-06T02:32:05;7.70;82.10
83283;DHT22;73190;50.780;5.658;2024-03-06T02:34:32;7.70;82.10
83283;DHT22;73190;50.780;5.658;2024-03-06T02:37:00;7.50;82.10
83283;DHT22;73190;50.780;5.658;2024-03-06T02:39:27;7.50;81.70
83283;DHT22;73190;50.780;5.658;2024-03-06T02:41:55;7.50;82.30
83283;DHT22;73190;50.780;5.658;2024-03-06T02:44:22;7.50;81.70
83283;DHT22;73190;50.780;5.658;2024-03-06T02:46:50;7.50;81.70
83283;DHT22;73190;50.780;5.658;2024-03-06T02:49:18;7.50;81.50
83283;DHT22;73190;50.780;5.658;2024-03-06T02:51:46;7.50;81.60
83283;DHT22;73190;50.780;5.658;2024-03-06T02:54:13;7.30;82.50
83283;DHT22;73190;50.780;5.658;2024-03-06T02:56:41;7.30;82.20
83283;DHT22;73190;50.780;5.658;2024-03-06T02:59:09;7.30;82.20
83283;DHT22;73190;50.780;5.658;2024-03-06T03:01:36;7.30;82.10
83283;DHT22;73190;50.780;5.658;2024-03-06T03:04:05;7.30;82.10
83283;DHT22;73190;50.780;5.658;2024-03-06T03:06:34;7.40;82.10
83283;DHT22;73190;50.780;5.658;2024-03-06T03:09:01;7.30;81.70
83283;DHT22;73190;50.780;5.658;2024-03-06T03:11:31;7.20;82.30
83283;DHT22;73190;50.780;5.658;2024-03-06T03:14:02;7.20;82.50
83283;DHT22;73190;50.780;5.658;2024-03-06T03:16:29;7.20;82.30
83283;DHT22;73190;50.780;5.658;2024-03-06T03:18:58;7.20;82.10
83283;DHT22;73190;50.780;5.658;2024-03-06T03:21:26;7.10;81.80
83283;DHT22;73190;50.780;5.658;2024-03-06T03:23:54;7.20;82.00
83283;DHT22;73190;50.780;5.658;2024-03-06T03:26:21;7.20;82.20
83283;DHT22;73190;50.780;5.658;2024-03-06T03:28:49;7.10;82.00
83283;DHT22;73190;50.780;5.658;2024-03-06T03:31:16;7.10;82.30
83283;DHT22;73190;50.780;5.658;2024-03-06T03:33:44;7.10;82.40
83283;DHT22;73190;50.780;5.658;2024-03-06T03:36:11;7.10;82.40
83283;DHT22;73190;50.780;5.658;2024-03-06T03:38:39;7.10;82.50
83283;DHT22;73190;50.780;5.658;2024-03-06T03:41:13;7.10;82.50
83283;DHT22;73190;50.780;5.658;2024-03-06T03:43:40;7.00;82.30
83283;DHT22;73190;50.780;5.658;2024-03-06T03:46:08;7.00;82.10
83283;DHT22;73190;50.780;5.658;2024-03-06T03:48:36;6.90;81.70
83283;DHT22;73190;50.780;5.658;2024-03-06T03:51:04;6.90;81.60
83283;DHT22;73190;50.780;5.658;2024-03-06T03:53:33;6.90;81.30
83283;DHT22;73190;50.780;5.658;2024-03-06T03:56:01;6.90;81.40
83283;DHT22;73190;50.780;5.658;2024-03-06T03:58:29;6.90;81.90
83283;DHT22;73190;50.780;5.658;2024-03-06T04:00:57;6.80;82.10
83283;DHT22;73190;50.780;5.658;2024-03-06T04:03:25;6.80;82.60
83283;DHT22;73190;50.780;5.658;2024-03-06T04:05:52;6.70;81.70
83283;DHT22;73190;50.780;5.658;2024-03-06T04:08:20;6.50;82.40
83283;DHT22;73190;50.780;5.658;2024-03-06T04:10:47;6.50;82.70
83283;DHT22;73190;50.780;5.658;2024-03-06T04:13:15;6.60;82.30
83283;DHT22;73190;50.780;5.658;2024-03-06T04:15:45;6.50;82.60
83283;DHT22;73190;50.780;5.658;2024-03-06T04:18:13;6.20;82.90
83283;DHT22;73190;50.780;5.658;2024-03-06T04:20:40;6.20;82.80
83283;DHT22;73190;50.780;5.658;2024-03-06T04:23:09;6.20;84.00
83283;DHT22;73190;50.780;5.658;2024-03-06T04:25:36;6.20;83.70
83283;DHT22;73190;50.780;5.658;2024-03-06T04:28:06;6.20;83.60
83283;DHT22;73190;50.780;5.658;2024-03-06T04:30:36;6.30;83.30
83283;DHT22;73190;50.780;5.658;2024-03-06T04:33:04;6.40;82.90
83283;DHT22;73190;50.780;5.658;2024-03-06T04:35:31;6.40;82.80
83283;DHT22;73190;50.780;5.658;2024-03-06T04:38:00;6.10;82.50
83283;DHT22;73190;50.780;5.658;2024-03-06T04:40:30;5.90;84.90
83283;DHT22;73190;50.780;5.658;2024-03-06T04:42:58;6.10;84.70
83283;DHT22;73190;50.780;5.658;2024-03-06T04:45:25;6.20;84.40
83283;DHT22;73190;50.780;5.658;2024-03-06T04:47:52;6.30;84.40
83283;DHT22;73190;50.780;5.658;2024-03-06T04:50:20;6.40;84.20
83283;DHT22;73190;50.780;5.658;2024-03-06T04:52:48;6.40;84.00
83283;DHT22;73190;50.780;5.658;2024-03-06T04:55:15;6.40;83.80
83283;DHT22;73190;50.780;5.658;2024-03-06T04:57:44;6.40;82.30
83283;DHT22;73190;50.780;5.658;2024-03-06T05:00:14;6.40;81.80
83283;DHT22;73190;50.780;5.658;2024-03-06T05:02:42;6.30;82.60
83283;DHT22;73190;50.780;5.658;2024-03-06T05:05:10;6.30;82.80
83283;DHT22;73190;50.780;5.658;2024-03-06T05:07:37;6.20;82.60
83283;DHT22;73190;50.780;5.658;2024-03-06T05:10:05;6.30;82.50
83283;DHT22;73190;50.780;5.658;2024-03-06T05:12:35;6.30;82.60
83283;DHT22;73190;50.780;5.658;2024-03-06T05:15:03;6.20;82.40
83283;DHT22;73190;50.780;5.658;2024-03-06T05:17:30;6.30;82.10
83283;DHT22;73190;50.780;5.658;2024-03-06T05:19:58;6.20;82.00
83283;DHT22;73190;50.780;5.658;2024-03-06T05:22:25;6.20;82.10
83283;DHT22;73190;50.780;5.658;2024-03-06T05:24:53;6.20;82.00
83283;DHT22;73190;50.780;5.658;2024-03-06T05:27:21;6.20;81.60
83283;DHT22;73190;50.780;5.658;2024-03-06T05:29:49;6.10;81.80
83283;DHT22;73190;50.780;5.658;2024-03-06T05:32:17;6.10;82.00
83283;DHT22;73190;50.780;5.658;2024-03-06T05:34:46;6.00;82.30
83283;DHT22;73190;50.780;5.658;2024-03-06T05:37:13;6.10;82.60
83283;DHT22;73190;50.780;5.658;2024-03-06T05:39:41;6.00;82.40
83283;DHT22;73190;50.780;5.658;2024-03-06T05:42:09;6.10;82.40
83283;DHT22;73190;50.780;5.658;2024-03-06T05:44:36;6.10;82.50
83283;DHT22;73190;50.780;5.658;2024-03-06T05:47:04;6.10;82.20
83283;DHT22;73190;50.780;5.658;2024-03-06T05:49:33;6.20;82.00
83283;DHT22;73190;50.780;5.658;2024-03-06T05:52:03;6.10;82.10
83283;DHT22;73190;50.780;5.658;2024-03-06T05:54:31;6.00;82.40
83283;DHT22;73190;50.780;5.658;2024-03-06T05:57:00;5.90;82.20
83283;DHT22;73190;50.780;5.658;2024-03-06T05:59:27;5.90;82.30
83283;DHT22;73190;50.780;5.658;2024-03-06T06:01:55;5.90;82.30
83283;DHT22;73190;50.780;5.658;2024-03-06T06:04:23;6.00;83.10
83283;DHT22;73190;50.780;5.658;2024-03-06T06:06:50;5.90;82.80
83283;DHT22;73190;50.780;5.658;2024-03-06T06:09:18;5.90;83.30
83283;DHT22;73190;50.780;5.658;2024-03-06T06:11:46;6.00;83.20
83283;DHT22;73190;50.780;5.658;2024-03-06T06:14:14;6.00;82.80
83283;DHT22;73190;50.780;5.658;2024-03-06T06:16:42;6.00;82.90
83283;DHT22;73190;50.780;5.658;2024-03-06T06:19:10;6.00;83.10
83283;DHT22;73190;50.780;5.658;2024-03-06T06:21:37;6.00;83.20
83283;DHT22;73190;50.780;5.658;2024-03-06T06:24:05;6.10;83.30
83283;DHT22;73190;50.780;5.658;2024-03-06T06:26:33;6.10;83.20
83283;DHT22;73190;50.780;5.658;2024-03-06T06:29:01;6.10;83.30
83283;DHT22;73190;50.780;5.658;2024-03-06T06:31:28;6.10;82.90
83283;DHT22;73190;50.780;5.658;2024-03-06T06:33:56;6.00;83.60
83283;DHT22;73190;50.780;5.658;2024-03-06T06:36:23;6.00;83.60
83283;DHT22;73190;50.780;5.658;2024-03-06T06:38:51;6.10;83.50
83283;DHT22;73190;50.780;5.658;2024-03-06T06:41:19;6.00;83.30
83283;DHT22;73190;50.780;5.658;2024-03-06T06:43:46;6.10;83.50
83283;DHT22;73190;50.780;5.658;2024-03-06T06:46:14;6.20;83.40
83283;DHT22;73190;50.780;5.658;2024-03-06T06:48:42;6.20;83.40
83283;DHT22;73190;50.780;5.658;2024-03-06T06:51:10;6.20;83.30
83283;DHT22;73190;50.780;5.658;2024-03-06T06:53:39;6.30;83.50
83283;DHT22;73190;50.780;5.658;2024-03-06T06:56:10;6.30;83.50
83283;DHT22;73190;50.780;5.658;2024-03-06T06:58:38;6.40;83.50
83283;DHT22;73190;50.780;5.658;2024-03-06T07:01:07;6.20;82.90
83283;DHT22;73190;50.780;5.658;2024-03-06T07:03:34;6.10;84.00
83283;DHT22;73190;50.780;5.658;2024-03-06T07:06:02;6.20;83.80
83283;DHT22;73190;50.780;5.658;2024-03-06T07:08:29;6.30;82.90
83283;DHT22;73190;50.780;5.658;2024-03-06T07:10:57;6.30;82.60
83283;DHT22;73190;50.780;5.658;2024-03-06T07:13:24;6.30;82.70
83283;DHT22;73190;50.780;5.658;2024-03-06T07:15:52;6.40;82.90
83283;DHT22;73190;50.780;5.658;2024-03-06T07:18:20;6.20;82.60
83283;DHT22;73190;50.780;5.658;2024-03-06T07:20:47;6.00;84.40
83283;DHT22;73190;50.780;5.658;2024-03-06T07:23:15;6.00;84.50
83283;DHT22;73190;50.780;5.658;2024-03-06T07:25:42;6.10;84.40
83283;DHT22;73190;50.780;5.658;2024-03-06T07:28:10;6.20;84.20
83283;DHT22;73190;50.780;5.658;2024-03-06T07:30:37;6.30;83.90
83283;DHT22;73190;50.780;5.658;2024-03-06T07:33:05;6.50;83.60
83283;DHT22;73190;50.780;5.658;2024-03-06T07:35:34;6.50;83.90
83283;DHT22;73190;50.780;5.658;2024-03-06T07:38:03;6.60;84.10
83283;DHT22;73190;50.780;5.658;2024-03-06T07:40:31;6.70;83.90
83283;DHT22;73190;50.780;5.658;2024-03-06T07:42:59;6.70;84.10
83283;DHT22;73190;50.780;5.658;2024-03-06T07:45:26;6.80;84.20
83283;DHT22;73190;50.780;5.658;2024-03-06T07:47:54;6.90;83.90
83283;DHT22;73190;50.780;5.658;2024-03-06T07:50:22;7.00;83.30
83283;DHT22;73190;50.780;5.658;2024-03-06T07:52:49;7.00;83.50
83283;DHT22;73190;50.780;5.658;2024-03-06T07:55:17;7.00;83.90
83283;DHT22;73190;50.780;5.658;2024-03-06T07:57:46;7.10;83.90
83283;DHT22;73190;50.780;5.658;2024-03-06T08:00:14;7.30;83.00
83283;DHT22;73190;50.780;5.658;2024-03-06T08:02:42;7.30;82.50
83283;DHT22;73190;50.780;5.658;2024-03-06T08:05:13;7.40;82.20
83283;DHT22;73190;50.780;5.658;2024-03-06T08:07:41;7.60;81.60
83283;DHT22;73190;50.780;5.658;2024-03-06T08:10:10;7.60;81.80
83283;DHT22;73190;50.780;5.658;2024-03-06T08:12:41;7.70;82.00
83283;DHT22;73190;50.780;5.658;2024-03-06T08:15:11;7.90;81.70
83283;DHT22;73190;50.780;5.658;2024-03-06T08:17:40;7.90;81.70
83283;DHT22;73190;50.780;5.658;2024-03-06T08:20:10;8.00;81.20
83283;DHT22;73190;50.780;5.658;2024-03-06T08:22:40;8.20;81.00
83283;DHT22;73190;50.780;5.658;2024-03-06T08:25:07;8.20;80.30
83283;DHT22;73190;50.780;5.658;2024-03-06T08:27:36;8.20;80.20
83283;DHT22;73190;50.780;5.658;2024-03-06T08:30:06;8.30;79.90
83283;DHT22;73190;50.780;5.658;2024-03-06T08:32:34;8.30;80.00
83283;DHT22;73190;50.780;5.658;2024-03-06T08:35:09;8.50;78.80
83283;DHT22;73190;50.780;5.658;2024-03-06T08:37:37;8.80;79.60
83283;DHT22;73190;50.780;5.658;2024-03-06T08:40:06;8.90;78.70
83283;DHT22;73190;50.780;5.658;2024-03-06T08:42:38;9.10;79.10
83283;DHT22;73190;50.780;5.658;2024-03-06T08:45:06;9.10;77.30
83283;DHT22;73190;50.780;5.658;2024-03-06T08:47:35;9.10;78.40
83283;DHT22;73190;50.780;5.658;2024-03-06T08:50:03;9.20;76.70
83283;DHT22;73190;50.780;5.658;2024-03-06T08:52:32;9.20;77.60
83283;DHT22;73190;50.780;5.658;2024-03-06T08:55:01;9.30;77.80
83283;DHT22;73190;50.780;5.658;2024-03-06T08:57:30;9.50;75.90
83283;DHT22;73190;50.780;5.658;2024-03-06T08:59:58;9.60;78.00
83283;DHT22;73190;50.780;5.658;2024-03-06T09:02:26;9.70;77.50
83283;DHT22;73190;50.780;5.658;2024-03-06T09:04:54;10.10;75.70
83283;DHT22;73190;50.780;5.658;2024-03-06T09:07:21;10.20;74.70
83283;DHT22;73190;50.780;5.658;2024-03-06T09:09:51;10.30;75.20
83283;DHT22;73190;50.780;5.658;2024-03-06T09:12:19;10.50;74.10
83283;DHT22;73190;50.780;5.658;2024-03-06T09:14:46;10.70;74.00
83283;DHT22;73190;50.780;5.658;2024-03-06T09:17:14;10.70;75.40
83283;DHT22;73190;50.780;5.658;2024-03-06T09:19:42;10.70;75.70
83283;DHT22;73190;50.780;5.658;2024-03-06T09:22:09;10.90;74.60
83283;DHT22;73190;50.780;5.658;2024-03-06T09:24:37;11.20;73.60
83283;DHT22;73190;50.780;5.658;2024-03-06T09:27:05;11.30;73.00
83283;DHT22;73190;50.780;5.658;2024-03-06T09:29:33;11.50;71.50
83283;DHT22;73190;50.780;5.658;2024-03-06T09:32:01;11.80;71.80
83283;DHT22;73190;50.780;5.658;2024-03-06T09:34:29;11.90;70.80
83283;DHT22;73190;50.780;5.658;2024-03-06T09:36:56;12.00;70.90
83283;DHT22;73190;50.780;5.658;2024-03-06T09:39:24;12.30;69.40
83283;DHT22;73190;50.780;5.658;2024-03-06T09:41:52;12.50;69.10
83283;DHT22;73190;50.780;5.658;2024-03-06T09:44:22;12.80;69.60
83283;DHT22;73190;50.780;5.658;2024-03-06T09:46:50;13.10;66.90
83283;DHT22;73190;50.780;5.658;2024-03-06T09:49:19;13.50;65.40
83283;DHT22;73190;50.780;5.658;2024-03-06T09:51:48;14.30;65.10
83283;DHT22;73190;50.780;5.658;2024-03-06T09:54:20;15.40;61.40
83283;DHT22;73190;50.780;5.658;2024-03-06T09:56:50;16.10;58.90
83283;DHT22;73190;50.780;5.658;2024-03-06T09:59:18;16.70;56.70
83283;DHT22;73190;50.780;5.658;2024-03-06T10:01:50;17.30;55.10
83283;DHT22;73190;50.780;5.658;2024-03-06T10:04:20;18.00;54.20
83283;DHT22;73190;50.780;5.658;2024-03-06T10:06:48;18.60;51.20
83283;DHT22;73190;50.780;5.658;2024-03-06T10:09:19;19.00;51.20
83283;DHT22;73190;50.780;5.658;2024-03-06T10:11:47;19.60;49.30
83283;DHT22;73190;50.780;5.658;2024-03-06T10:14:15;20.10;49.70
83283;DHT22;73190;50.780;5.658;2024-03-06T10:16:56;20.70;48.20
83283;DHT22;73190;50.780;5.658;2024-03-06T10:19:28;20.60;45.80
83283;DHT22;73190;50.780;5.658;2024-03-06T10:21:56;21.30;43.90
83283;DHT22;73190;50.780;5.658;2024-03-06T10:24:30;21.30;44.30
83283;DHT22;73190;50.780;5.658;2024-03-06T10:26:58;21.80;42.30
83283;DHT22;73190;50.780;5.658;2024-03-06T10:29:28;21.70;40.40
83283;DHT22;73190;50.780;5.658;2024-03-06T10:31:57;22.70;41.40
83283;DHT22;73190;50.780;5.658;2024-03-06T10:34:27;23.10;40.90
83283;DHT22;73190;50.780;5.658;2024-03-06T10:37:02;23.10;38.00
83283;DHT22;73190;50.780;5.658;2024-03-06T10:39:26;23.50;38.40
83283;DHT22;73190;50.780;5.658;2024-03-06T10:41:56;24.50;38.10
83283;DHT22;73190;50.780;5.658;2024-03-06T10:44:25;24.80;37.80
83283;DHT22;73190;50.780;5.658;2024-03-06T10:46:59;25.60;34.50
83283;DHT22;73190;50.780;5.658;2024-03-06T10:49:28;26.60;33.50
83283;DHT22;73190;50.780;5.658;2024-03-06T10:52:01;26.20;34.30
83283;DHT22;73190;50.780;5.658;2024-03-06T10:54:36;27.00;32.60
83283;DHT22;73190;50.780;5.658;2024-03-06T10:57:05;28.20;30.70
83283;DHT22;73190;50.780;5.658;2024-03-06T10:59:34;28.10;31.20
83283;DHT22;73190;50.780;5.658;2024-03-06T11:02:02;28.30;30.40
83283;DHT22;73190;50.780;5.658;2024-03-06T11:04:31;27.40;30.90
83283;DHT22;73190;50.780;5.658;2024-03-06T11:07:03;27.70;29.90
83283;DHT22;73190;50.780;5.658;2024-03-06T11:09:34;27.60;29.20
83283;DHT22;73190;50.780;5.658;2024-03-06T11:12:02;28.70;28.60
83283;DHT22;73190;50.780;5.658;2024-03-06T11:14:31;30.20;27.80
83283;DHT22;73190;50.780;5.658;2024-03-06T11:17:09;31.00;27.00
83283;DHT22;73190;50.780;5.658;2024-03-06T11:28:18;29.90;28.00
83283;DHT22;73190;50.780;5.658;2024-03-06T11:31:03;31.30;27.50
83283;DHT22;73190;50.780;5.658;2024-03-06T11:33:41;31.10;26.80
83283;DHT22;73190;50.780;5.658;2024-03-06T11:41:33;32.10;26.90
83283;DHT22;73190;50.780;5.658;2024-03-06T11:44:01;32.70;26.50
83283;DHT22;73190;50.780;5.658;2024-03-06T11:46:58;33.20;26.50
83283;DHT22;73190;50.780;5.658;2024-03-06T11:49:28;33.00;26.80
83283;DHT22;73190;50.780;5.658;2024-03-06T11:51:57;31.90;26.20
83283;DHT22;73190;50.780;5.658;2024-03-06T11:54:25;29.20;28.20
83283;DHT22;73190;50.780;5.658;2024-03-06T11:56:56;27.70;28.70
83283;DHT22;73190;50.780;5.658;2024-03-06T11:59:27;26.10;30.70
83283;DHT22;73190;50.780;5.658;2024-03-06T12:02:02;24.20;33.70
83283;DHT22;73190;50.780;5.658;2024-03-06T12:04:33;22.70;35.70
83283;DHT22;73190;50.780;5.658;2024-03-06T12:07:02;23.00;37.30
83283;DHT22;73190;50.780;5.658;2024-03-06T12:09:33;25.00;32.00
83283;DHT22;73190;50.780;5.658;2024-03-06T12:12:00;26.30;32.70
83283;DHT22;73190;50.780;5.658;2024-03-06T12:14:28;27.40;30.30
83283;DHT22;73190;50.780;5.658;2024-03-06T12:16:58;28.60;28.80
83283;DHT22;73190;50.780;5.658;2024-03-06T12:19:27;28.60;28.40
83283;DHT22;73190;50.780;5.658;2024-03-06T12:21:55;27.60;29.90
83283;DHT22;73190;50.780;5.658;2024-03-06T12:24:23;26.50;29.80
83283;DHT22;73190;50.780;5.658;2024-03-06T12:27:02;25.40;30.70
83283;DHT22;73190;50.780;5.658;2024-03-06T12:29:31;24.80;31.30
83283;DHT22;73190;50.780;5.658;2024-03-06T12:32:00;26.00;30.40
83283;DHT22;73190;50.780;5.658;2024-03-06T12:34:28;26.00;30.60
83283;DHT22;73190;50.780;5.658;2024-03-06T12:36:56;25.80;30.00
83283;DHT22;73190;50.780;5.658;2024-03-06T12:39:24;23.70;32.90
83283;DHT22;73190;50.780;5.658;2024-03-06T12:41:52;23.00;34.00
83283;DHT22;73190;50.780;5.658;2024-03-06T12:44:20;22.00;36.20
83283;DHT22;73190;50.780;5.658;2024-03-06T12:46:48;21.50;38.90
83283;DHT22;73190;50.780;5.658;2024-03-06T12:49:16;21.80;36.60
83283;DHT22;73190;50.780;5.658;2024-03-06T12:51:45;22.60;35.20
83283;DHT22;73190;50.780;5.658;2024-03-06T12:54:12;22.30;36.30
83283;DHT22;73190;50.780;5.658;2024-03-06T12:56:40;21.70;36.60
83283;DHT22;73190;50.780;5.658;2024-03-06T12:59:08;21.10;37.30
83283;DHT22;73190;50.780;5.658;2024-03-06T13:01:36;21.20;36.80
83283;DHT22;73190;50.780;5.658;2024-03-06T13:04:04;20.90;36.40
83283;DHT22;73190;50.780;5.658;2024-03-06T13:06:32;20.50;37.60
83283;DHT22;73190;50.780;5.658;2024-03-06T13:09:00;21.70;35.60
83283;DHT22;73190;50.780;5.658;2024-03-06T13:11:27;23.20;33.70
83283;DHT22;73190;50.780;5.658;2024-03-06T13:13:55;24.20;32.10
83283;DHT22;73190;50.780;5.658;2024-03-06T13:16:22;24.90;30.60
83283;DHT22;73190;50.780;5.658;2024-03-06T13:18:50;25.80;30.80
83283;DHT22;73190;50.780;5.658;2024-03-06T13:21:19;25.90;30.10
83283;DHT22;73190;50.780;5.658;2024-03-06T13:23:46;27.00;29.00
83283;DHT22;73190;50.780;5.658;2024-03-06T13:26:14;27.80;27.80
83283;DHT22;73190;50.780;5.658;2024-03-06T13:28:42;27.30;27.70
83283;DHT22;73190;50.780;5.658;2024-03-06T13:31:09;26.60;28.20
83283;DHT22;73190;50.780;5.658;2024-03-06T13:33:37;26.40;29.10
83283;DHT22;73190;50.780;5.658;2024-03-06T13:36:05;26.30;29.50
83283;DHT22;73190;50.780;5.658;2024-03-06T13:38:33;27.20;27.70
83283;DHT22;73190;50.780;5.658;2024-03-06T13:41:00;27.50;27.60
83283;DHT22;73190;50.780;5.658;2024-03-06T13:43:31;26.20;28.90
83283;DHT22;73190;50.780;5.658;2024-03-06T13:45:59;25.00;30.50
83283;DHT22;73190;50.780;5.658;2024-03-06T13:48:27;24.60;30.00
83283;DHT22;73190;50.780;5.658;2024-03-06T13:50:54;24.20;31.10
83283;DHT22;73190;50.780;5.658;2024-03-06T13:53:22;23.80;30.00
83283;DHT22;73190;50.780;5.658;2024-03-06T13:55:49;24.40;30.20
83283;DHT22;73190;50.780;5.658;2024-03-06T13:58:18;24.30;30.60
83283;DHT22;73190;50.780;5.658;2024-03-06T14:00:45;24.30;31.50
83283;DHT22;73190;50.780;5.658;2024-03-06T14:03:13;23.80;30.90
83283;DHT22;73190;50.780;5.658;2024-03-06T14:05:41;23.20;30.60
83283;DHT22;73190;50.780;5.658;2024-03-06T14:08:09;22.20;32.20
83283;DHT22;73190;50.780;5.658;2024-03-06T14:10:41;21.40;35.50
83283;DHT22;73190;50.780;5.658;2024-03-06T14:13:09;21.00;35.10
83283;DHT22;73190;50.780;5.658;2024-03-06T14:15:36;20.40;37.50
83283;DHT22;73190;50.780;5.658;2024-03-06T14:18:04;20.30;35.90
83283;DHT22;73190;50.780;5.658;2024-03-06T14:20:32;19.80;36.60
83283;DHT22;73190;50.780;5.658;2024-03-06T14:23:00;20.40;35.80
83283;DHT22;73190;50.780;5.658;2024-03-06T14:25:28;21.80;34.40
83283;DHT22;73190;50.780;5.658;2024-03-06T14:27:55;22.00;33.90
83283;DHT22;73190;50.780;5.658;2024-03-06T14:30:23;21.60;33.50
83283;DHT22;73190;50.780;5.658;2024-03-06T14:32:51;21.60;34.10
83283;DHT22;73190;50.780;5.658;2024-03-06T14:35:18;21.90;33.70
83283;DHT22;73190;50.780;5.658;2024-03-06T14:37:48;23.10;31.60
83283;DHT22;73190;50.780;5.658;2024-03-06T14:40:16;24.20;29.90
83283;DHT22;73190;50.780;5.658;2024-03-06T14:42:44;24.80;29.70
83283;DHT22;73190;50.780;5.658;2024-03-06T14:45:11;24.80;29.30
83283;DHT22;73190;50.780;5.658;2024-03-06T14:47:39;24.70;29.30
83283;DHT22;73190;50.780;5.658;2024-03-06T14:50:07;24.10;29.80
83283;DHT22;73190;50.780;5.658;2024-03-06T14:52:34;24.00;30.50
83283;DHT22;73190;50.780;5.658;2024-03-06T14:55:07;23.90;32.90
83283;DHT22;73190;50.780;5.658;2024-03-06T14:57:37;23.90;32.20
83283;DHT22;73190;50.780;5.658;2024-03-06T15:00:05;23.80;31.00
83283;DHT22;73190;50.780;5.658;2024-03-06T15:02:33;23.20;33.40
83283;DHT22;73190;50.780;5.658;2024-03-06T15:05:01;23.10;34.10
83283;DHT22;73190;50.780;5.658;2024-03-06T15:07:29;23.40;33.90
83283;DHT22;73190;50.780;5.658;2024-03-06T15:09:58;23.50;31.40
83283;DHT22;73190;50.780;5.658;2024-03-06T15:12:25;22.20;33.00
83283;DHT22;73190;50.780;5.658;2024-03-06T15:14:53;21.30;35.10
83283;DHT22;73190;50.780;5.658;2024-03-06T15:17:23;20.40;37.00
83283;DHT22;73190;50.780;5.658;2024-03-06T15:19:53;19.40;38.70
83283;DHT22;73190;50.780;5.658;2024-03-06T15:22:27;19.00;38.90
83283;DHT22;73190;50.780;5.658;2024-03-06T15:24:55;19.10;38.90
83283;DHT22;73190;50.780;5.658;2024-03-06T15:27:22;18.80;40.00
83283;DHT22;73190;50.780;5.658;2024-03-06T15:29:50;19.30;38.50
83283;DHT22;73190;50.780;5.658;2024-03-06T15:32:22;19.70;38.20
83283;DHT22;73190;50.780;5.658;2024-03-06T15:34:50;20.30;37.20
83283;DHT22;73190;50.780;5.658;2024-03-06T15:37:20;20.40;36.20
83283;DHT22;73190;50.780;5.658;2024-03-06T15:39:48;20.30;36.40
83283;DHT22;73190;50.780;5.658;2024-03-06T15:42:15;21.00;36.20
83283;DHT22;73190;50.780;5.658;2024-03-06T15:44:43;21.90;34.40
83283;DHT22;73190;50.780;5.658;2024-03-06T15:47:10;22.30;32.70
83283;DHT22;73190;50.780;5.658;2024-03-06T15:49:38;21.90;33.30
83283;DHT22;73190;50.780;5.658;2024-03-06T15:52:08;20.70;34.70
83283;DHT22;73190;50.780;5.658;2024-03-06T15:54:37;19.90;36.80
83283;DHT22;73190;50.780;5.658;2024-03-06T15:57:06;19.70;36.60
83283;DHT22;73190;50.780;5.658;2024-03-06T15:59:37;19.20;37.70
83283;DHT22;73190;50.780;5.658;2024-03-06T16:02:08;18.90;37.00